sensor_id;sensor_type;location;lat;lon;timestamp;P1;durP1;ratioP1;P2;durP2;ratioP2
20170;SDS011;10245;51.344;6.620;2022-07-22T00:02:21;14.25;;;7.65;;
20170;SDS011;10245;51.344;6.620;2022-07-22T00:04:44;11.90;;;7.53;;
20170;SDS011;10245;51.344;6.620;2022-07-22T00:07:09;12.30;;;7.50;;
20170;SDS011;10245;51.344;6.620;2022-07-22T00:09:32;13.75;;;7.78;;
20170;SDS011;10245;51.344;6.620;2022-07-22T00:11:57;14.52;;;7.47;;
20170;SDS011;10245;51.344;6.620;2022-07-22T00:14:21;14.43;;;8.35;;
20170;SDS011;10245;51.344;6.620;2022-07-22T00:16:45;17.15;;;7.75;;
20170;SDS011;10245;51.344;6.620;2022-07-22T00:19:09;14.40;;;7.88;;
20170;SDS011;10245;51.344;6.620;2022-07-22T00:21:34;13.45;;;7.22;;
20170;SDS011;10245;51.344;6.620;2022-07-22T00:23:58;11.65;;;7.85;;
20170;SDS011;10245;51.344;6.620;2022-07-22T00:26:21;9.75;;;6.75;;
20170;SDS011;10245;51.344;6.620;2022-07-22T00:28:46;13.00;;;7.88;;
20170;SDS011;10245;51.344;6.620;2022-07-22T00:31:10;13.35;;;7.75;;
20170;SDS011;10245;51.344;6.620;2022-07-22T00:33:34;12.38;;;7.60;;
20170;SDS011;10245;51.344;6.620;2022-07-22T00:35:57;11.85;;;7.53;;
20170;SDS011;10245;51.344;6.620;2022-07-22T00:38:21;12.23;;;7.53;;
20170;SDS011;10245;51.344;6.620;2022-07-22T00:40:45;11.98;;;8.20;;
20170;SDS011;10245;51.344;6.620;2022-07-22T00:43:08;15.02;;;8.15;;
20170;SDS011;10245;51.344;6.620;2022-07-22T00:45:33;13.73;;;8.07;;
20170;SDS011;10245;51.344;6.620;2022-07-22T00:47:58;14.02;;;7.95;;
20170;SDS011;10245;51.344;6.620;2022-07-22T00:50:23;15.65;;;9.50;;
20170;SDS011;10245;51.344;6.620;2022-07-22T00:52:46;14.25;;;8.98;;
20170;SDS011;10245;51.344;6.620;2022-07-22T00:55:10;14.25;;;8.98;;
20170;SDS011;10245;51.344;6.620;2022-07-22T00:57:35;13.20;;;9.75;;
20170;SDS011;10245;51.344;6.620;2022-07-22T00:59:59;11.90;;;9.15;;
20170;SDS011;10245;51.344;6.620;2022-07-22T01:02:25;10.82;;;9.10;;
20170;SDS011;10245;51.344;6.620;2022-07-22T01:04:48;12.68;;;9.63;;
20170;SDS011;10245;51.344;6.620;2022-07-22T01:07:12;17.17;;;9.52;;
20170;SDS011;10245;51.344;6.620;2022-07-22T01:09:36;16.70;;;9.82;;
20170;SDS011;10245;51.344;6.620;2022-07-22T01:12:00;13.73;;;9.88;;
20170;SDS011;10245;51.344;6.620;2022-07-22T01:14:25;15.43;;;9.70;;
20170;SDS011;10245;51.344;6.620;2022-07-22T01:16:49;16.10;;;10.10;;
20170;SDS011;10245;51.344;6.620;2022-07-22T01:19:14;14.95;;;10.38;;
20170;SDS011;10245;51.344;6.620;2022-07-22T01:21:39;12.80;;;8.93;;
20170;SDS011;10245;51.344;6.620;2022-07-22T01:24:03;12.70;;;9.05;;
20170;SDS011;10245;51.344;6.620;2022-07-22T01:26:28;13.82;;;10.32;;
20170;SDS011;10245;51.344;6.620;2022-07-22T01:28:52;12.40;;;10.18;;
20170;SDS011;10245;51.344;6.620;2022-07-22T01:31:16;13.57;;;9.38;;
20170;SDS011;10245;51.344;6.620;2022-07-22T01:33:40;11.38;;;8.80;;
20170;SDS011;10245;51.344;6.620;2022-07-22T01:36:05;16.17;;;9.70;;
20170;SDS011;10245;51.344;6.620;2022-07-22T01:38:31;14.80;;;10.20;;
20170;SDS011;10245;51.344;6.620;2022-07-22T01:40:55;14.75;;;9.00;;
20170;SDS011;10245;51.344;6.620;2022-07-22T01:43:20;12.77;;;9.45;;
20170;SDS011;10245;51.344;6.620;2022-07-22T01:45:45;14.45;;;9.27;;
20170;SDS011;10245;51.344;6.620;2022-07-22T01:48:13;12.30;;;8.45;;
20170;SDS011;10245;51.344;6.620;2022-07-22T01:50:37;12.00;;;8.63;;
20170;SDS011;10245;51.344;6.620;2022-07-22T01:53:01;10.23;;;8.65;;
20170;SDS011;10245;51.344;6.620;2022-07-22T01:55:26;11.95;;;8.35;;
20170;SDS011;10245;51.344;6.620;2022-07-22T01:57:49;10.48;;;7.68;;
20170;SDS011;10245;51.344;6.620;2022-07-22T02:00:19;11.70;;;8.20;;
20170;SDS011;10245;51.344;6.620;2022-07-22T02:02:43;13.30;;;7.85;;
20170;SDS011;10245;51.344;6.620;2022-07-22T02:05:07;10.60;;;7.78;;
20170;SDS011;10245;51.344;6.620;2022-07-22T02:07:31;11.77;;;7.90;;
20170;SDS011;10245;51.344;6.620;2022-07-22T02:09:57;9.27;;;7.80;;
20170;SDS011;10245;51.344;6.620;2022-07-22T02:12:24;12.88;;;8.10;;
20170;SDS011;10245;51.344;6.620;2022-07-22T02:14:47;11.30;;;7.47;;
20170;SDS011;10245;51.344;6.620;2022-07-22T02:17:11;10.57;;;7.68;;
20170;SDS011;10245;51.344;6.620;2022-07-22T02:19:36;11.57;;;7.32;;
20170;SDS011;10245;51.344;6.620;2022-07-22T02:21:59;11.68;;;7.53;;
20170;SDS011;10245;51.344;6.620;2022-07-22T02:24:23;10.75;;;7.22;;
20170;SDS011;10245;51.344;6.620;2022-07-22T02:26:46;11.02;;;6.55;;
20170;SDS011;10245;51.344;6.620;2022-07-22T02:29:11;8.27;;;5.85;;
20170;SDS011;10245;51.344;6.620;2022-07-22T02:31:35;12.65;;;6.13;;
20170;SDS011;10245;51.344;6.620;2022-07-22T02:34:01;15.00;;;6.30;;
20170;SDS011;10245;51.344;6.620;2022-07-22T02:36:26;10.63;;;6.78;;
20170;SDS011;10245;51.344;6.620;2022-07-22T02:38:51;11.32;;;6.28;;
20170;SDS011;10245;51.344;6.620;2022-07-22T02:41:18;10.48;;;6.28;;
20170;SDS011;10245;51.344;6.620;2022-07-22T02:43:46;11.60;;;6.60;;
20170;SDS011;10245;51.344;6.620;2022-07-22T02:46:14;9.35;;;6.78;;
20170;SDS011;10245;51.344;6.620;2022-07-22T02:48:39;10.05;;;6.32;;
20170;SDS011;10245;51.344;6.620;2022-07-22T02:51:06;10.80;;;6.97;;
20170;SDS011;10245;51.344;6.620;2022-07-22T02:53:29;13.18;;;6.43;;
20170;SDS011;10245;51.344;6.620;2022-07-22T02:55:55;16.45;;;7.32;;
20170;SDS011;10245;51.344;6.620;2022-07-22T02:58:18;15.00;;;6.85;;
20170;SDS011;10245;51.344;6.620;2022-07-22T03:00:42;11.07;;;6.45;;
20170;SDS011;10245;51.344;6.620;2022-07-22T03:03:14;10.98;;;7.00;;
20170;SDS011;10245;51.344;6.620;2022-07-22T03:05:38;12.32;;;6.28;;
20170;SDS011;10245;51.344;6.620;2022-07-22T03:08:17;12.13;;;6.57;;
20170;SDS011;10245;51.344;6.620;2022-07-22T03:10:41;11.05;;;6.88;;
20170;SDS011;10245;51.344;6.620;2022-07-22T03:13:05;8.98;;;6.18;;
20170;SDS011;10245;51.344;6.620;2022-07-22T03:15:29;12.35;;;6.80;;
20170;SDS011;10245;51.344;6.620;2022-07-22T03:17:53;12.57;;;6.88;;
20170;SDS011;10245;51.344;6.620;2022-07-22T03:20:20;11.63;;;6.63;;
20170;SDS011;10245;51.344;6.620;2022-07-22T03:22:44;14.60;;;6.45;;
20170;SDS011;10245;51.344;6.620;2022-07-22T03:25:08;11.05;;;6.45;;
20170;SDS011;10245;51.344;6.620;2022-07-22T03:27:32;9.20;;;6.10;;
20170;SDS011;10245;51.344;6.620;2022-07-22T03:29:56;10.43;;;5.80;;
20170;SDS011;10245;51.344;6.620;2022-07-22T03:32:19;11.10;;;5.78;;
20170;SDS011;10245;51.344;6.620;2022-07-22T03:34:43;10.02;;;5.32;;
20170;SDS011;10245;51.344;6.620;2022-07-22T03:37:08;12.05;;;5.90;;
20170;SDS011;10245;51.344;6.620;2022-07-22T03:39:33;11.23;;;5.45;;
20170;SDS011;10245;51.344;6.620;2022-07-22T03:41:57;8.52;;;5.57;;
20170;SDS011;10245;51.344;6.620;2022-07-22T03:44:22;9.05;;;5.22;;
20170;SDS011;10245;51.344;6.620;2022-07-22T03:46:46;9.77;;;5.55;;
20170;SDS011;10245;51.344;6.620;2022-07-22T03:49:10;10.45;;;5.03;;
20170;SDS011;10245;51.344;6.620;2022-07-22T03:51:35;13.52;;;5.63;;
20170;SDS011;10245;51.344;6.620;2022-07-22T03:54:00;12.18;;;5.15;;
20170;SDS011;10245;51.344;6.620;2022-07-22T03:56:25;10.90;;;5.53;;
20170;SDS011;10245;51.344;6.620;2022-07-22T03:58:48;6.50;;;5.20;;
20170;SDS011;10245;51.344;6.620;2022-07-22T04:01:13;7.53;;;4.65;;
20170;SDS011;10245;51.344;6.620;2022-07-22T04:03:40;11.15;;;5.47;;
20170;SDS011;10245;51.344;6.620;2022-07-22T04:06:14;13.93;;;5.15;;
20170;SDS011;10245;51.344;6.620;2022-07-22T04:08:43;10.38;;;5.05;;
20170;SDS011;10245;51.344;6.620;2022-07-22T04:11:09;7.03;;;4.05;;
20170;SDS011;10245;51.344;6.620;2022-07-22T04:13:34;6.82;;;3.72;;
20170;SDS011;10245;51.344;6.620;2022-07-22T04:15:58;8.35;;;3.88;;
20170;SDS011;10245;51.344;6.620;2022-07-22T04:18:22;9.95;;;4.13;;
20170;SDS011;10245;51.344;6.620;2022-07-22T04:20:46;7.65;;;4.25;;
20170;SDS011;10245;51.344;6.620;2022-07-22T04:23:16;9.65;;;4.20;;
20170;SDS011;10245;51.344;6.620;2022-07-22T04:25:46;7.30;;;4.40;;
20170;SDS011;10245;51.344;6.620;2022-07-22T04:28:11;9.25;;;4.53;;
20170;SDS011;10245;51.344;6.620;2022-07-22T04:30:36;8.88;;;4.40;;
20170;SDS011;10245;51.344;6.620;2022-07-22T04:33:00;6.32;;;3.83;;
20170;SDS011;10245;51.344;6.620;2022-07-22T04:35:24;9.00;;;4.07;;
20170;SDS011;10245;51.344;6.620;2022-07-22T04:38:05;9.63;;;4.00;;
20170;SDS011;10245;51.344;6.620;2022-07-22T04:40:31;10.32;;;3.63;;
20170;SDS011;10245;51.344;6.620;2022-07-22T04:42:55;8.30;;;3.28;;
20170;SDS011;10245;51.344;6.620;2022-07-22T04:45:21;8.25;;;3.40;;
20170;SDS011;10245;51.344;6.620;2022-07-22T04:47:45;8.98;;;3.40;;
20170;SDS011;10245;51.344;6.620;2022-07-22T04:50:08;9.90;;;3.95;;
20170;SDS011;10245;51.344;6.620;2022-07-22T04:52:33;6.75;;;3.30;;
20170;SDS011;10245;51.344;6.620;2022-07-22T04:54:57;7.75;;;3.00;;
20170;SDS011;10245;51.344;6.620;2022-07-22T04:57:21;10.05;;;3.72;;
20170;SDS011;10245;51.344;6.620;2022-07-22T04:59:49;5.15;;;3.03;;
20170;SDS011;10245;51.344;6.620;2022-07-22T05:02:15;9.35;;;3.47;;
20170;SDS011;10245;51.344;6.620;2022-07-22T05:04:39;7.57;;;3.13;;
20170;SDS011;10245;51.344;6.620;2022-07-22T05:07:03;8.50;;;2.85;;
20170;SDS011;10245;51.344;6.620;2022-07-22T05:09:26;6.03;;;2.97;;
20170;SDS011;10245;51.344;6.620;2022-07-22T05:11:52;7.03;;;3.28;;
20170;SDS011;10245;51.344;6.620;2022-07-22T05:14:17;6.85;;;2.90;;
20170;SDS011;10245;51.344;6.620;2022-07-22T05:16:41;8.70;;;2.80;;
20170;SDS011;10245;51.344;6.620;2022-07-22T05:19:07;7.45;;;3.00;;
20170;SDS011;10245;51.344;6.620;2022-07-22T05:21:32;6.40;;;2.83;;
20170;SDS011;10245;51.344;6.620;2022-07-22T05:23:56;7.50;;;2.80;;
20170;SDS011;10245;51.344;6.620;2022-07-22T05:26:20;7.70;;;3.00;;
20170;SDS011;10245;51.344;6.620;2022-07-22T05:28:47;5.63;;;2.60;;
20170;SDS011;10245;51.344;6.620;2022-07-22T05:31:11;10.65;;;3.28;;
20170;SDS011;10245;51.344;6.620;2022-07-22T05:33:36;8.10;;;3.25;;
20170;SDS011;10245;51.344;6.620;2022-07-22T05:36:19;8.23;;;3.45;;
20170;SDS011;10245;51.344;6.620;2022-07-22T05:38:42;10.13;;;3.28;;
20170;SDS011;10245;51.344;6.620;2022-07-22T05:41:06;7.72;;;3.38;;
20170;SDS011;10245;51.344;6.620;2022-07-22T05:43:30;6.53;;;3.00;;
20170;SDS011;10245;51.344;6.620;2022-07-22T05:45:55;11.48;;;3.20;;
20170;SDS011;10245;51.344;6.620;2022-07-22T05:48:19;6.13;;;2.90;;
20170;SDS011;10245;51.344;6.620;2022-07-22T05:50:43;9.95;;;3.40;;
20170;SDS011;10245;51.344;6.620;2022-07-22T05:53:08;7.43;;;3.10;;
20170;SDS011;10245;51.344;6.620;2022-07-22T05:55:32;6.32;;;3.15;;
20170;SDS011;10245;51.344;6.620;2022-07-22T05:57:55;11.32;;;3.17;;
20170;SDS011;10245;51.344;6.620;2022-07-22T06:00:19;9.35;;;3.08;;
20170;SDS011;10245;51.344;6.620;2022-07-22T06:02:44;6.40;;;2.95;;
20170;SDS011;10245;51.344;6.620;2022-07-22T06:05:14;10.70;;;3.20;;
20170;SDS011;10245;51.344;6.620;2022-07-22T06:07:58;6.63;;;3.10;;
20170;SDS011;10245;51.344;6.620;2022-07-22T06:10:43;8.85;;;3.00;;
20170;SDS011;10245;51.344;6.620;2022-07-22T06:13:07;7.68;;;3.10;;
20170;SDS011;10245;51.344;6.620;2022-07-22T06:15:33;7.20;;;3.00;;
20170;SDS011;10245;51.344;6.620;2022-07-22T06:17:57;8.13;;;3.42;;
20170;SDS011;10245;51.344;6.620;2022-07-22T06:20:21;12.38;;;3.78;;
20170;SDS011;10245;51.344;6.620;2022-07-22T06:22:44;6.45;;;3.10;;
20170;SDS011;10245;51.344;6.620;2022-07-22T06:25:08;10.52;;;3.30;;
20170;SDS011;10245;51.344;6.620;2022-07-22T06:27:54;6.88;;;3.15;;
20170;SDS011;10245;51.344;6.620;2022-07-22T06:30:17;10.60;;;3.53;;
20170;SDS011;10245;51.344;6.620;2022-07-22T06:32:41;5.60;;;2.90;;
20170;SDS011;10245;51.344;6.620;2022-07-22T06:35:12;8.35;;;3.58;;
20170;SDS011;10245;51.344;6.620;2022-07-22T06:37:36;10.70;;;3.45;;
20170;SDS011;10245;51.344;6.620;2022-07-22T06:40:21;12.85;;;3.13;;
20170;SDS011;10245;51.344;6.620;2022-07-22T06:43:08;9.13;;;3.33;;
20170;SDS011;10245;51.344;6.620;2022-07-22T06:46:08;9.13;;;3.17;;
20170;SDS011;10245;51.344;6.620;2022-07-22T06:48:41;9.68;;;3.78;;
20170;SDS011;10245;51.344;6.620;2022-07-22T06:51:04;9.57;;;3.40;;
20170;SDS011;10245;51.344;6.620;2022-07-22T06:53:28;8.88;;;3.25;;
20170;SDS011;10245;51.344;6.620;2022-07-22T06:55:52;6.05;;;3.20;;
20170;SDS011;10245;51.344;6.620;2022-07-22T06:58:18;7.10;;;3.25;;
20170;SDS011;10245;51.344;6.620;2022-07-22T07:00:41;8.57;;;3.45;;
20170;SDS011;10245;51.344;6.620;2022-07-22T07:03:31;11.07;;;3.90;;
20170;SDS011;10245;51.344;6.620;2022-07-22T07:05:59;8.32;;;3.63;;
20170;SDS011;10245;51.344;6.620;2022-07-22T07:08:39;6.35;;;3.20;;
20170;SDS011;10245;51.344;6.620;2022-07-22T07:11:03;7.35;;;3.38;;
20170;SDS011;10245;51.344;6.620;2022-07-22T07:13:29;10.20;;;3.50;;
20170;SDS011;10245;51.344;6.620;2022-07-22T07:15:53;9.00;;;3.25;;
20170;SDS011;10245;51.344;6.620;2022-07-22T07:18:16;10.82;;;3.25;;
20170;SDS011;10245;51.344;6.620;2022-07-22T07:20:41;9.57;;;3.30;;
20170;SDS011;10245;51.344;6.620;2022-07-22T07:23:07;9.18;;;3.92;;
20170;SDS011;10245;51.344;6.620;2022-07-22T07:25:38;8.88;;;3.25;;
20170;SDS011;10245;51.344;6.620;2022-07-22T07:28:02;9.30;;;3.63;;
20170;SDS011;10245;51.344;6.620;2022-07-22T07:30:58;12.05;;;3.00;;
20170;SDS011;10245;51.344;6.620;2022-07-22T07:33:23;9.90;;;3.83;;
20170;SDS011;10245;51.344;6.620;2022-07-22T07:35:47;6.00;;;3.60;;
20170;SDS011;10245;51.344;6.620;2022-07-22T07:38:18;8.15;;;3.17;;
20170;SDS011;10245;51.344;6.620;2022-07-22T07:40:42;9.57;;;3.70;;
20170;SDS011;10245;51.344;6.620;2022-07-22T07:43:06;8.40;;;4.05;;
20170;SDS011;10245;51.344;6.620;2022-07-22T07:45:30;10.77;;;4.40;;
20170;SDS011;10245;51.344;6.620;2022-07-22T07:47:56;10.05;;;4.50;;
20170;SDS011;10245;51.344;6.620;2022-07-22T07:50:19;10.90;;;4.20;;
20170;SDS011;10245;51.344;6.620;2022-07-22T07:52:44;11.88;;;5.43;;
20170;SDS011;10245;51.344;6.620;2022-07-22T07:55:15;11.50;;;5.80;;
20170;SDS011;10245;51.344;6.620;2022-07-22T07:57:40;9.82;;;5.30;;
20170;SDS011;10245;51.344;6.620;2022-07-22T08:00:09;14.05;;;5.00;;
20170;SDS011;10245;51.344;6.620;2022-07-22T08:02:34;8.82;;;4.75;;
20170;SDS011;10245;51.344;6.620;2022-07-22T08:05:00;7.43;;;4.47;;
20170;SDS011;10245;51.344;6.620;2022-07-22T08:07:24;7.97;;;4.50;;
20170;SDS011;10245;51.344;6.620;2022-07-22T08:09:51;10.65;;;5.07;;
20170;SDS011;10245;51.344;6.620;2022-07-22T08:12:50;10.82;;;4.57;;
20170;SDS011;10245;51.344;6.620;2022-07-22T08:15:33;8.50;;;4.65;;
20170;SDS011;10245;51.344;6.620;2022-07-22T08:18:04;8.65;;;4.30;;
20170;SDS011;10245;51.344;6.620;2022-07-22T08:20:30;11.35;;;4.85;;
20170;SDS011;10245;51.344;6.620;2022-07-22T08:22:54;7.95;;;4.65;;
20170;SDS011;10245;51.344;6.620;2022-07-22T08:25:21;10.18;;;4.43;;
20170;SDS011;10245;51.344;6.620;2022-07-22T08:27:45;13.35;;;4.78;;
20170;SDS011;10245;51.344;6.620;2022-07-22T08:30:09;8.85;;;4.22;;
20170;SDS011;10245;51.344;6.620;2022-07-22T08:32:34;11.20;;;4.60;;
20170;SDS011;10245;51.344;6.620;2022-07-22T08:34:58;10.05;;;4.20;;
20170;SDS011;10245;51.344;6.620;2022-07-22T08:37:23;11.30;;;4.47;;
20170;SDS011;10245;51.344;6.620;2022-07-22T08:39:47;9.90;;;4.50;;
20170;SDS011;10245;51.344;6.620;2022-07-22T08:42:11;9.73;;;4.93;;
20170;SDS011;10245;51.344;6.620;2022-07-22T08:44:35;10.40;;;4.93;;
20170;SDS011;10245;51.344;6.620;2022-07-22T08:47:00;7.68;;;4.82;;
20170;SDS011;10245;51.344;6.620;2022-07-22T08:50:10;8.27;;;4.85;;
20170;SDS011;10245;51.344;6.620;2022-07-22T08:52:55;9.35;;;5.30;;
20170;SDS011;10245;51.344;6.620;2022-07-22T08:55:18;9.10;;;4.68;;
20170;SDS011;10245;51.344;6.620;2022-07-22T08:57:43;9.10;;;5.07;;
20170;SDS011;10245;51.344;6.620;2022-07-22T09:00:09;8.38;;;5.55;;
20170;SDS011;10245;51.344;6.620;2022-07-22T09:02:36;12.18;;;5.43;;
20170;SDS011;10245;51.344;6.620;2022-07-22T09:05:04;12.43;;;5.88;;
20170;SDS011;10245;51.344;6.620;2022-07-22T09:07:50;11.93;;;7.25;;
20170;SDS011;10245;51.344;6.620;2022-07-22T09:10:21;10.30;;;5.95;;
20170;SDS011;10245;51.344;6.620;2022-07-22T09:13:00;9.85;;;6.55;;
20170;SDS011;10245;51.344;6.620;2022-07-22T09:15:48;11.57;;;8.52;;
20170;SDS011;10245;51.344;6.620;2022-07-22T09:18:35;13.30;;;8.57;;
20170;SDS011;10245;51.344;6.620;2022-07-22T09:21:20;13.27;;;9.02;;
20170;SDS011;10245;51.344;6.620;2022-07-22T09:24:26;12.05;;;8.38;;
20170;SDS011;10245;51.344;6.620;2022-07-22T09:27:16;14.20;;;9.30;;
20170;SDS011;10245;51.344;6.620;2022-07-22T09:30:18;15.57;;;9.75;;
20170;SDS011;10245;51.344;6.620;2022-07-22T09:32:51;11.73;;;9.35;;
20170;SDS011;10245;51.344;6.620;2022-07-22T09:35:37;13.65;;;9.63;;
20170;SDS011;10245;51.344;6.620;2022-07-22T09:38:11;12.48;;;10.68;;
20170;SDS011;10245;51.344;6.620;2022-07-22T09:40:38;14.93;;;10.55;;
20170;SDS011;10245;51.344;6.620;2022-07-22T09:43:05;13.50;;;11.18;;
20170;SDS011;10245;51.344;6.620;2022-07-22T09:45:34;12.18;;;9.43;;
20170;SDS011;10245;51.344;6.620;2022-07-22T09:47:58;13.82;;;8.50;;
20170;SDS011;10245;51.344;6.620;2022-07-22T09:50:32;12.63;;;8.23;;
20170;SDS011;10245;51.344;6.620;2022-07-22T09:53:18;13.40;;;8.23;;
20170;SDS011;10245;51.344;6.620;2022-07-22T09:56:05;11.55;;;9.00;;
20170;SDS011;10245;51.344;6.620;2022-07-22T09:58:31;14.43;;;10.88;;
20170;SDS011;10245;51.344;6.620;2022-07-22T10:00:59;12.52;;;10.32;;
20170;SDS011;10245;51.344;6.620;2022-07-22T10:03:29;14.88;;;10.32;;
20170;SDS011;10245;51.344;6.620;2022-07-22T10:05:56;13.63;;;9.88;;
20170;SDS011;10245;51.344;6.620;2022-07-22T10:08:21;12.05;;;9.02;;
20170;SDS011;10245;51.344;6.620;2022-07-22T10:10:46;11.93;;;9.75;;
20170;SDS011;10245;51.344;6.620;2022-07-22T10:13:10;9.65;;;7.80;;
20170;SDS011;10245;51.344;6.620;2022-07-22T10:15:36;12.25;;;8.68;;
20170;SDS011;10245;51.344;6.620;2022-07-22T10:18:02;12.18;;;9.10;;
20170;SDS011;10245;51.344;6.620;2022-07-22T10:20:31;12.68;;;9.20;;
20170;SDS011;10245;51.344;6.620;2022-07-22T10:22:56;12.38;;;6.95;;
20170;SDS011;10245;51.344;6.620;2022-07-22T10:25:28;10.07;;;6.47;;
20170;SDS011;10245;51.344;6.620;2022-07-22T10:27:54;13.13;;;6.80;;
20170;SDS011;10245;51.344;6.620;2022-07-22T10:30:20;9.52;;;6.38;;
20170;SDS011;10245;51.344;6.620;2022-07-22T10:33:02;11.18;;;6.55;;
20170;SDS011;10245;51.344;6.620;2022-07-22T10:35:29;9.35;;;6.03;;
20170;SDS011;10245;51.344;6.620;2022-07-22T10:38:00;11.07;;;6.15;;
20170;SDS011;10245;51.344;6.620;2022-07-22T10:40:30;9.95;;;5.95;;
20170;SDS011;10245;51.344;6.620;2022-07-22T10:43:05;9.95;;;6.28;;
20170;SDS011;10245;51.344;6.620;2022-07-22T10:45:32;9.82;;;6.55;;
20170;SDS011;10245;51.344;6.620;2022-07-22T10:47:59;8.98;;;6.80;;
20170;SDS011;10245;51.344;6.620;2022-07-22T10:53:43;11.77;;;7.78;;
20170;SDS011;10245;51.344;6.620;2022-07-22T10:56:17;10.30;;;7.13;;
20170;SDS011;10245;51.344;6.620;2022-07-22T10:58:58;9.30;;;7.10;;
20170;SDS011;10245;51.344;6.620;2022-07-22T11:01:31;10.38;;;7.20;;
20170;SDS011;10245;51.344;6.620;2022-07-22T11:03:56;9.35;;;8.35;;
20170;SDS011;10245;51.344;6.620;2022-07-22T11:06:39;8.70;;;7.38;;
20170;SDS011;10245;51.344;6.620;2022-07-22T11:09:04;8.90;;;7.18;;
20170;SDS011;10245;51.344;6.620;2022-07-22T11:11:32;10.10;;;6.45;;
20170;SDS011;10245;51.344;6.620;2022-07-22T11:14:01;8.70;;;6.22;;
20170;SDS011;10245;51.344;6.620;2022-07-22T11:16:25;7.78;;;6.05;;
20170;SDS011;10245;51.344;6.620;2022-07-22T11:18:51;8.85;;;6.20;;
20170;SDS011;10245;51.344;6.620;2022-07-22T11:21:20;8.52;;;5.45;;
20170;SDS011;10245;51.344;6.620;2022-07-22T11:23:50;6.88;;;5.22;;
20170;SDS011;10245;51.344;6.620;2022-07-22T11:26:17;8.45;;;6.10;;
20170;SDS011;10245;51.344;6.620;2022-07-22T11:28:48;10.80;;;5.65;;
20170;SDS011;10245;51.344;6.620;2022-07-22T11:31:14;10.30;;;6.53;;
20170;SDS011;10245;51.344;6.620;2022-07-22T11:33:40;7.38;;;5.68;;
20170;SDS011;10245;51.344;6.620;2022-07-22T11:36:04;9.05;;;6.05;;
20170;SDS011;10245;51.344;6.620;2022-07-22T11:38:44;9.43;;;5.55;;
20170;SDS011;10245;51.344;6.620;2022-07-22T11:41:14;6.90;;;4.45;;
20170;SDS011;10245;51.344;6.620;2022-07-22T11:43:41;3.67;;;3.13;;
20170;SDS011;10245;51.344;6.620;2022-07-22T11:46:06;10.20;;;3.28;;
20170;SDS011;10245;51.344;6.620;2022-07-22T11:48:30;5.75;;;3.03;;
20170;SDS011;10245;51.344;6.620;2022-07-22T11:50:58;3.80;;;2.90;;
20170;SDS011;10245;51.344;6.620;2022-07-22T11:53:23;3.70;;;3.00;;
20170;SDS011;10245;51.344;6.620;2022-07-22T11:55:48;3.83;;;2.60;;
20170;SDS011;10245;51.344;6.620;2022-07-22T11:58:12;3.30;;;2.30;;
20170;SDS011;10245;51.344;6.620;2022-07-22T12:00:37;4.30;;;2.42;;
20170;SDS011;10245;51.344;6.620;2022-07-22T12:03:01;3.42;;;2.78;;
20170;SDS011;10245;51.344;6.620;2022-07-22T12:05:26;5.95;;;2.80;;
20170;SDS011;10245;51.344;6.620;2022-07-22T12:07:53;6.07;;;2.67;;
20170;SDS011;10245;51.344;6.620;2022-07-22T12:10:20;3.88;;;2.33;;
20170;SDS011;10245;51.344;6.620;2022-07-22T12:12:46;3.90;;;2.28;;
20170;SDS011;10245;51.344;6.620;2022-07-22T12:15:09;6.05;;;2.40;;
20170;SDS011;10245;51.344;6.620;2022-07-22T12:17:53;3.08;;;2.65;;
20170;SDS011;10245;51.344;6.620;2022-07-22T12:20:42;4.90;;;2.00;;
20170;SDS011;10245;51.344;6.620;2022-07-22T12:23:14;4.28;;;2.38;;
20170;SDS011;10245;51.344;6.620;2022-07-22T12:25:51;2.83;;;2.10;;
20170;SDS011;10245;51.344;6.620;2022-07-22T12:28:18;3.42;;;2.15;;
20170;SDS011;10245;51.344;6.620;2022-07-22T12:30:42;6.78;;;2.55;;
20170;SDS011;10245;51.344;6.620;2022-07-22T12:33:12;4.40;;;2.40;;
20170;SDS011;10245;51.344;6.620;2022-07-22T12:35:36;2.95;;;2.25;;
20170;SDS011;10245;51.344;6.620;2022-07-22T12:38:05;3.50;;;2.05;;
20170;SDS011;10245;51.344;6.620;2022-07-22T12:40:30;4.78;;;1.98;;
20170;SDS011;10245;51.344;6.620;2022-07-22T12:42:59;4.47;;;2.15;;
20170;SDS011;10245;51.344;6.620;2022-07-22T12:45:27;9.00;;;5.13;;
20170;SDS011;10245;51.344;6.620;2022-07-22T12:47:53;7.95;;;4.72;;
20170;SDS011;10245;51.344;6.620;2022-07-22T12:50:25;5.45;;;2.88;;
20170;SDS011;10245;51.344;6.620;2022-07-22T12:52:51;5.85;;;2.90;;
20170;SDS011;10245;51.344;6.620;2022-07-22T12:55:37;4.10;;;2.88;;
20170;SDS011;10245;51.344;6.620;2022-07-22T12:58:03;3.63;;;2.50;;
20170;SDS011;10245;51.344;6.620;2022-07-22T13:00:31;3.95;;;2.75;;
20170;SDS011;10245;51.344;6.620;2022-07-22T13:02:57;5.05;;;2.70;;
20170;SDS011;10245;51.344;6.620;2022-07-22T13:05:21;2.97;;;2.30;;
20170;SDS011;10245;51.344;6.620;2022-07-22T13:07:45;5.78;;;2.63;;
20170;SDS011;10245;51.344;6.620;2022-07-22T13:10:09;5.85;;;2.47;;
20170;SDS011;10245;51.344;6.620;2022-07-22T13:12:35;4.35;;;2.38;;
20170;SDS011;10245;51.344;6.620;2022-07-22T13:14:58;3.72;;;2.72;;
20170;SDS011;10245;51.344;6.620;2022-07-22T13:17:23;3.13;;;2.33;;
20170;SDS011;10245;51.344;6.620;2022-07-22T13:19:47;6.32;;;3.00;;
20170;SDS011;10245;51.344;6.620;2022-07-22T13:22:11;4.18;;;2.45;;
20170;SDS011;10245;51.344;6.620;2022-07-22T13:24:35;5.20;;;2.63;;
20170;SDS011;10245;51.344;6.620;2022-07-22T13:26:58;3.55;;;2.22;;
20170;SDS011;10245;51.344;6.620;2022-07-22T13:29:22;5.93;;;2.70;;
20170;SDS011;10245;51.344;6.620;2022-07-22T13:31:46;5.28;;;2.35;;
20170;SDS011;10245;51.344;6.620;2022-07-22T13:34:45;2.92;;;2.20;;
20170;SDS011;10245;51.344;6.620;2022-07-22T13:37:09;3.75;;;2.40;;
20170;SDS011;10245;51.344;6.620;2022-07-22T13:39:33;5.57;;;2.17;;
20170;SDS011;10245;51.344;6.620;2022-07-22T13:41:56;4.50;;;2.20;;
20170;SDS011;10245;51.344;6.620;2022-07-22T13:44:20;2.85;;;2.17;;
20170;SDS011;10245;51.344;6.620;2022-07-22T13:46:43;3.33;;;2.25;;
20170;SDS011;10245;51.344;6.620;2022-07-22T13:49:08;4.75;;;2.38;;
20170;SDS011;10245;51.344;6.620;2022-07-22T13:51:33;3.17;;;2.13;;
20170;SDS011;10245;51.344;6.620;2022-07-22T13:53:57;3.28;;;1.98;;
20170;SDS011;10245;51.344;6.620;2022-07-22T13:56:21;5.60;;;2.20;;
20170;SDS011;10245;51.344;6.620;2022-07-22T13:58:45;2.72;;;2.17;;
20170;SDS011;10245;51.344;6.620;2022-07-22T14:01:09;3.63;;;2.35;;
20170;SDS011;10245;51.344;6.620;2022-07-22T14:03:33;3.20;;;2.35;;
20170;SDS011;10245;51.344;6.620;2022-07-22T14:05:56;2.97;;;2.30;;
20170;SDS011;10245;51.344;6.620;2022-07-22T14:08:21;4.63;;;2.60;;
20170;SDS011;10245;51.344;6.620;2022-07-22T14:10:45;3.17;;;2.15;;
20170;SDS011;10245;51.344;6.620;2022-07-22T14:13:09;6.28;;;2.72;;
20170;SDS011;10245;51.344;6.620;2022-07-22T14:15:33;5.38;;;2.58;;
20170;SDS011;10245;51.344;6.620;2022-07-22T14:17:56;4.13;;;2.15;;
20170;SDS011;10245;51.344;6.620;2022-07-22T14:20:20;4.18;;;2.65;;
20170;SDS011;10245;51.344;6.620;2022-07-22T14:22:45;5.03;;;2.50;;
20170;SDS011;10245;51.344;6.620;2022-07-22T14:25:10;3.75;;;2.45;;
20170;SDS011;10245;51.344;6.620;2022-07-22T14:27:34;5.68;;;2.50;;
20170;SDS011;10245;51.344;6.620;2022-07-22T14:29:57;5.20;;;2.33;;
20170;SDS011;10245;51.344;6.620;2022-07-22T14:32:21;3.67;;;2.35;;
20170;SDS011;10245;51.344;6.620;2022-07-22T14:34:45;5.90;;;2.20;;
20170;SDS011;10245;51.344;6.620;2022-07-22T14:37:09;5.65;;;2.33;;
20170;SDS011;10245;51.344;6.620;2022-07-22T14:39:32;2.40;;;2.20;;
20170;SDS011;10245;51.344;6.620;2022-07-22T14:41:57;2.33;;;2.00;;
20170;SDS011;10245;51.344;6.620;2022-07-22T14:44:24;2.35;;;2.10;;
20170;SDS011;10245;51.344;6.620;2022-07-22T14:46:48;2.70;;;2.28;;